Terminal Aerodrome Forecast
Issued by NWS

Home | Current Version | Previous Version | Text Only | Print | Product List | Glossary On
Versions: 1 2 3 4 5 6 7 8 9 10 11 12 13 14 15 16 17 18 19 20 21 22 23 24
000
FTUS41 KOKX 302300
TAFSWF
TAF
KSWF 302340Z 0100/0206 10007KT P6SM SCT020 BKN050
     FM010200 08006KT P6SM FEW010 BKN020
     FM010800 06006KT 3SM BR SCT006 BKN015
      TEMPO 0110/0114 BKN006
     FM011400 06008KT 6SM -SHRA BR OVC015
     FM011800 05010KT P6SM -SHRA SCT015 BKN025
     FM020000 04007KT P6SM OVC015
      AMD NOT SKED=

USA.gov is the U.S. government's official web portal to all federal, state and local government web resources and services.